sensor_id;sensor_type;location;lat;lon;timestamp;temperature;humidity
20712;DHT22;10517;50.742;4.224;2023-06-22T00:00:55;20.50;99.90
20712;DHT22;10517;50.742;4.224;2023-06-22T00:03:22;20.60;99.90
20712;DHT22;10517;50.742;4.224;2023-06-22T00:05:48;20.70;99.90
20712;DHT22;10517;50.742;4.224;2023-06-22T00:08:15;20.70;99.90
20712;DHT22;10517;50.742;4.224;2023-06-22T00:10:41;20.70;99.90
20712;DHT22;10517;50.742;4.224;2023-06-22T00:13:08;20.80;99.90
20712;DHT22;10517;50.742;4.224;2023-06-22T00:15:34;20.80;99.90
20712;DHT22;10517;50.742;4.224;2023-06-22T00:18:00;20.70;99.90
20712;DHT22;10517;50.742;4.224;2023-06-22T00:20:26;20.70;99.90
20712;DHT22;10517;50.742;4.224;2023-06-22T00:22:59;20.60;99.90
20712;DHT22;10517;50.742;4.224;2023-06-22T00:25:25;20.60;99.90
20712;DHT22;10517;50.742;4.224;2023-06-22T00:27:52;20.60;99.90
20712;DHT22;10517;50.742;4.224;2023-06-22T00:30:18;20.60;99.90
20712;DHT22;10517;50.742;4.224;2023-06-22T00:32:45;20.60;99.90
20712;DHT22;10517;50.742;4.224;2023-06-22T00:35:12;20.50;99.90
20712;DHT22;10517;50.742;4.224;2023-06-22T00:37:39;20.40;99.90
20712;DHT22;10517;50.742;4.224;2023-06-22T00:40:11;20.40;99.90
20712;DHT22;10517;50.742;4.224;2023-06-22T00:42:40;20.40;99.90
20712;DHT22;10517;50.742;4.224;2023-06-22T00:45:07;20.40;99.90
20712;DHT22;10517;50.742;4.224;2023-06-22T00:47:36;20.40;99.90
20712;DHT22;10517;50.742;4.224;2023-06-22T00:50:04;20.40;99.90
20712;DHT22;10517;50.742;4.224;2023-06-22T00:52:32;20.40;99.90
20712;DHT22;10517;50.742;4.224;2023-06-22T00:55:01;20.40;99.90
20712;DHT22;10517;50.742;4.224;2023-06-22T00:57:28;20.50;99.90
20712;DHT22;10517;50.742;4.224;2023-06-22T00:59:54;20.50;99.90
20712;DHT22;10517;50.742;4.224;2023-06-22T01:02:20;20.50;99.90
20712;DHT22;10517;50.742;4.224;2023-06-22T01:04:45;20.50;99.90
20712;DHT22;10517;50.742;4.224;2023-06-22T01:07:25;20.50;99.90
20712;DHT22;10517;50.742;4.224;2023-06-22T01:10:12;20.40;99.90
20712;DHT22;10517;50.742;4.224;2023-06-22T01:12:52;20.30;99.90
20712;DHT22;10517;50.742;4.224;2023-06-22T01:15:25;20.30;99.90
20712;DHT22;10517;50.742;4.224;2023-06-22T01:17:54;20.20;99.90
20712;DHT22;10517;50.742;4.224;2023-06-22T01:20:21;20.10;99.90
20712;DHT22;10517;50.742;4.224;2023-06-22T01:23:07;20.10;99.90
20712;DHT22;10517;50.742;4.224;2023-06-22T01:31:01;20.00;99.90
20712;DHT22;10517;50.742;4.224;2023-06-22T01:33:33;20.00;99.90
20712;DHT22;10517;50.742;4.224;2023-06-22T01:36:01;20.00;99.90
20712;DHT22;10517;50.742;4.224;2023-06-22T01:38:29;19.90;99.90
20712;DHT22;10517;50.742;4.224;2023-06-22T01:40:59;19.90;99.90
20712;DHT22;10517;50.742;4.224;2023-06-22T01:43:26;19.80;99.90
20712;DHT22;10517;50.742;4.224;2023-06-22T01:45:54;19.80;99.90
20712;DHT22;10517;50.742;4.224;2023-06-22T01:48:20;19.90;99.90
20712;DHT22;10517;50.742;4.224;2023-06-22T01:50:47;19.80;99.90
20712;DHT22;10517;50.742;4.224;2023-06-22T01:53:13;19.70;99.90
20712;DHT22;10517;50.742;4.224;2023-06-22T01:55:38;19.70;99.90
20712;DHT22;10517;50.742;4.224;2023-06-22T01:58:04;19.60;99.90
20712;DHT22;10517;50.742;4.224;2023-06-22T02:00:33;19.60;99.90
20712;DHT22;10517;50.742;4.224;2023-06-22T02:03:05;19.50;99.90
20712;DHT22;10517;50.742;4.224;2023-06-22T02:05:35;19.50;99.90
20712;DHT22;10517;50.742;4.224;2023-06-22T02:08:11;19.60;99.90
20712;DHT22;10517;50.742;4.224;2023-06-22T02:10:42;19.60;99.90
20712;DHT22;10517;50.742;4.224;2023-06-22T02:13:10;19.60;99.90
20712;DHT22;10517;50.742;4.224;2023-06-22T02:15:36;19.40;99.90
20712;DHT22;10517;50.742;4.224;2023-06-22T02:18:02;19.30;99.90
20712;DHT22;10517;50.742;4.224;2023-06-22T02:20:28;19.20;99.90
20712;DHT22;10517;50.742;4.224;2023-06-22T02:22:54;19.20;99.90
20712;DHT22;10517;50.742;4.224;2023-06-22T02:25:19;19.10;99.90
20712;DHT22;10517;50.742;4.224;2023-06-22T02:27:46;19.10;99.90
20712;DHT22;10517;50.742;4.224;2023-06-22T02:30:12;19.10;99.90
20712;DHT22;10517;50.742;4.224;2023-06-22T02:32:40;19.10;99.90
20712;DHT22;10517;50.742;4.224;2023-06-22T02:35:08;19.10;99.90
20712;DHT22;10517;50.742;4.224;2023-06-22T02:37:35;19.10;99.90
20712;DHT22;10517;50.742;4.224;2023-06-22T02:40:01;19.10;99.90
20712;DHT22;10517;50.742;4.224;2023-06-22T02:42:28;19.10;99.90
20712;DHT22;10517;50.742;4.224;2023-06-22T02:44:54;19.20;99.90
20712;DHT22;10517;50.742;4.224;2023-06-22T02:47:19;19.30;99.90
20712;DHT22;10517;50.742;4.224;2023-06-22T02:49:45;19.40;99.90
20712;DHT22;10517;50.742;4.224;2023-06-22T02:52:12;19.40;99.90
20712;DHT22;10517;50.742;4.224;2023-06-22T02:54:37;19.40;99.90
20712;DHT22;10517;50.742;4.224;2023-06-22T02:57:03;19.50;99.90
20712;DHT22;10517;50.742;4.224;2023-06-22T02:59:29;19.50;99.90
20712;DHT22;10517;50.742;4.224;2023-06-22T03:01:55;19.50;99.90
20712;DHT22;10517;50.742;4.224;2023-06-22T03:04:21;19.40;99.90
20712;DHT22;10517;50.742;4.224;2023-06-22T03:06:46;19.40;99.90
20712;DHT22;10517;50.742;4.224;2023-06-22T03:09:16;19.40;99.90
20712;DHT22;10517;50.742;4.224;2023-06-22T03:11:42;19.40;99.90
20712;DHT22;10517;50.742;4.224;2023-06-22T03:14:08;19.30;99.90
20712;DHT22;10517;50.742;4.224;2023-06-22T03:16:34;19.30;99.90
20712;DHT22;10517;50.742;4.224;2023-06-22T03:18:59;19.40;99.90
20712;DHT22;10517;50.742;4.224;2023-06-22T03:21:27;19.40;99.90
20712;DHT22;10517;50.742;4.224;2023-06-22T03:23:53;19.40;99.90
20712;DHT22;10517;50.742;4.224;2023-06-22T03:26:19;19.40;99.90
20712;DHT22;10517;50.742;4.224;2023-06-22T03:28:46;19.40;99.90
20712;DHT22;10517;50.742;4.224;2023-06-22T03:31:12;19.50;99.90
20712;DHT22;10517;50.742;4.224;2023-06-22T03:33:37;19.50;99.90
20712;DHT22;10517;50.742;4.224;2023-06-22T03:36:03;19.50;99.90
20712;DHT22;10517;50.742;4.224;2023-06-22T03:38:29;19.50;99.90
20712;DHT22;10517;50.742;4.224;2023-06-22T03:40:54;19.40;99.90
20712;DHT22;10517;50.742;4.224;2023-06-22T03:43:20;19.50;99.90
20712;DHT22;10517;50.742;4.224;2023-06-22T03:45:46;19.70;99.90
20712;DHT22;10517;50.742;4.224;2023-06-22T03:48:12;19.80;99.90
20712;DHT22;10517;50.742;4.224;2023-06-22T03:50:37;19.70;99.90
20712;DHT22;10517;50.742;4.224;2023-06-22T03:53:03;19.60;99.90
20712;DHT22;10517;50.742;4.224;2023-06-22T03:55:29;19.50;99.90
20712;DHT22;10517;50.742;4.224;2023-06-22T03:57:55;19.50;99.90
20712;DHT22;10517;50.742;4.224;2023-06-22T04:00:25;19.40;99.90
20712;DHT22;10517;50.742;4.224;2023-06-22T04:02:51;19.40;99.90
20712;DHT22;10517;50.742;4.224;2023-06-22T04:05:17;19.40;99.90
20712;DHT22;10517;50.742;4.224;2023-06-22T04:07:45;19.40;99.90
20712;DHT22;10517;50.742;4.224;2023-06-22T04:10:11;19.50;99.90
20712;DHT22;10517;50.742;4.224;2023-06-22T04:12:36;19.60;99.90
20712;DHT22;10517;50.742;4.224;2023-06-22T04:15:02;19.60;99.90
20712;DHT22;10517;50.742;4.224;2023-06-22T04:17:28;19.60;99.90
20712;DHT22;10517;50.742;4.224;2023-06-22T04:19:54;19.60;99.90
20712;DHT22;10517;50.742;4.224;2023-06-22T04:22:19;19.60;99.90
20712;DHT22;10517;50.742;4.224;2023-06-22T04:24:45;19.70;99.90
20712;DHT22;10517;50.742;4.224;2023-06-22T04:27:11;19.80;99.90
20712;DHT22;10517;50.742;4.224;2023-06-22T04:29:37;19.70;99.90
20712;DHT22;10517;50.742;4.224;2023-06-22T04:32:03;19.80;99.90
20712;DHT22;10517;50.742;4.224;2023-06-22T04:34:31;19.90;99.90
20712;DHT22;10517;50.742;4.224;2023-06-22T04:36:57;19.90;99.90
20712;DHT22;10517;50.742;4.224;2023-06-22T04:39:23;20.00;99.90
20712;DHT22;10517;50.742;4.224;2023-06-22T04:41:49;20.00;99.90
20712;DHT22;10517;50.742;4.224;2023-06-22T04:44:17;20.00;99.90
20712;DHT22;10517;50.742;4.224;2023-06-22T04:46:53;20.10;99.90
20712;DHT22;10517;50.742;4.224;2023-06-22T04:49:20;20.20;99.90
20712;DHT22;10517;50.742;4.224;2023-06-22T04:51:47;20.20;99.90
20712;DHT22;10517;50.742;4.224;2023-06-22T04:54:13;20.20;99.90
20712;DHT22;10517;50.742;4.224;2023-06-22T04:56:39;20.20;99.90
20712;DHT22;10517;50.742;4.224;2023-06-22T04:59:07;20.20;99.90
20712;DHT22;10517;50.742;4.224;2023-06-22T05:01:33;20.30;99.90
20712;DHT22;10517;50.742;4.224;2023-06-22T05:04:00;20.30;99.90
20712;DHT22;10517;50.742;4.224;2023-06-22T05:06:27;20.30;99.90
20712;DHT22;10517;50.742;4.224;2023-06-22T05:08:56;20.40;99.90
20712;DHT22;10517;50.742;4.224;2023-06-22T05:11:26;20.40;99.90
20712;DHT22;10517;50.742;4.224;2023-06-22T05:13:53;20.30;99.90
20712;DHT22;10517;50.742;4.224;2023-06-22T05:16:19;20.30;99.90
20712;DHT22;10517;50.742;4.224;2023-06-22T05:18:53;20.20;99.90
20712;DHT22;10517;50.742;4.224;2023-06-22T05:21:26;20.10;99.90
20712;DHT22;10517;50.742;4.224;2023-06-22T05:23:53;19.90;99.90
20712;DHT22;10517;50.742;4.224;2023-06-22T05:26:20;19.70;99.90
20712;DHT22;10517;50.742;4.224;2023-06-22T05:28:47;19.70;99.90
20712;DHT22;10517;50.742;4.224;2023-06-22T05:31:16;19.70;99.90
20712;DHT22;10517;50.742;4.224;2023-06-22T05:33:43;19.80;99.90
20712;DHT22;10517;50.742;4.224;2023-06-22T05:36:09;19.80;99.90
20712;DHT22;10517;50.742;4.224;2023-06-22T05:38:36;19.80;99.90
20712;DHT22;10517;50.742;4.224;2023-06-22T05:41:02;19.70;99.90
20712;DHT22;10517;50.742;4.224;2023-06-22T05:43:28;19.60;99.90
20712;DHT22;10517;50.742;4.224;2023-06-22T05:45:54;19.70;99.90
20712;DHT22;10517;50.742;4.224;2023-06-22T05:48:19;19.70;99.90
20712;DHT22;10517;50.742;4.224;2023-06-22T05:50:45;19.90;99.90
20712;DHT22;10517;50.742;4.224;2023-06-22T05:53:11;20.00;99.90
20712;DHT22;10517;50.742;4.224;2023-06-22T05:55:37;19.90;99.90
20712;DHT22;10517;50.742;4.224;2023-06-22T05:58:03;19.90;99.90
20712;DHT22;10517;50.742;4.224;2023-06-22T06:00:31;19.80;99.90
20712;DHT22;10517;50.742;4.224;2023-06-22T06:02:57;19.80;99.90
20712;DHT22;10517;50.742;4.224;2023-06-22T06:05:33;19.80;99.90
20712;DHT22;10517;50.742;4.224;2023-06-22T06:08:00;19.90;99.90
20712;DHT22;10517;50.742;4.224;2023-06-22T06:10:26;20.00;99.90
20712;DHT22;10517;50.742;4.224;2023-06-22T06:12:53;19.90;99.90
20712;DHT22;10517;50.742;4.224;2023-06-22T06:15:18;20.10;99.90
20712;DHT22;10517;50.742;4.224;2023-06-22T06:17:52;20.20;99.90
20712;DHT22;10517;50.742;4.224;2023-06-22T06:20:23;20.20;99.90
20712;DHT22;10517;50.742;4.224;2023-06-22T06:22:49;20.20;99.90
20712;DHT22;10517;50.742;4.224;2023-06-22T06:25:15;20.20;99.90
20712;DHT22;10517;50.742;4.224;2023-06-22T06:27:45;20.30;99.90
20712;DHT22;10517;50.742;4.224;2023-06-22T06:30:12;20.40;99.90
20712;DHT22;10517;50.742;4.224;2023-06-22T06:32:39;20.60;99.90
20712;DHT22;10517;50.742;4.224;2023-06-22T06:35:09;20.60;99.90
20712;DHT22;10517;50.742;4.224;2023-06-22T06:37:39;20.70;99.90
20712;DHT22;10517;50.742;4.224;2023-06-22T06:40:09;20.60;99.90
20712;DHT22;10517;50.742;4.224;2023-06-22T06:42:37;20.70;99.90
20712;DHT22;10517;50.742;4.224;2023-06-22T06:45:06;20.80;99.90
20712;DHT22;10517;50.742;4.224;2023-06-22T06:47:32;21.00;99.90
20712;DHT22;10517;50.742;4.224;2023-06-22T06:49:57;21.20;99.90
20712;DHT22;10517;50.742;4.224;2023-06-22T06:52:23;21.50;99.90
20712;DHT22;10517;50.742;4.224;2023-06-22T06:54:49;21.50;99.90
20712;DHT22;10517;50.742;4.224;2023-06-22T06:57:17;21.50;99.90
20712;DHT22;10517;50.742;4.224;2023-06-22T06:59:43;21.60;99.90
20712;DHT22;10517;50.742;4.224;2023-06-22T07:02:08;21.70;99.90
20712;DHT22;10517;50.742;4.224;2023-06-22T07:04:34;21.80;99.90
20712;DHT22;10517;50.742;4.224;2023-06-22T07:07:01;21.80;99.90
20712;DHT22;10517;50.742;4.224;2023-06-22T07:09:27;22.00;99.90
20712;DHT22;10517;50.742;4.224;2023-06-22T07:11:53;22.00;99.90
20712;DHT22;10517;50.742;4.224;2023-06-22T07:14:18;22.20;99.90
20712;DHT22;10517;50.742;4.224;2023-06-22T07:16:44;22.20;99.90
20712;DHT22;10517;50.742;4.224;2023-06-22T07:19:11;22.40;99.90
20712;DHT22;10517;50.742;4.224;2023-06-22T07:21:38;22.40;99.90
20712;DHT22;10517;50.742;4.224;2023-06-22T07:24:05;22.40;99.90
20712;DHT22;10517;50.742;4.224;2023-06-22T07:26:31;22.40;99.90
20712;DHT22;10517;50.742;4.224;2023-06-22T07:28:57;22.30;99.90
20712;DHT22;10517;50.742;4.224;2023-06-22T07:31:26;22.40;99.90
20712;DHT22;10517;50.742;4.224;2023-06-22T07:33:51;22.40;99.90
20712;DHT22;10517;50.742;4.224;2023-06-22T07:36:18;22.50;99.90
20712;DHT22;10517;50.742;4.224;2023-06-22T07:38:43;22.70;99.90
20712;DHT22;10517;50.742;4.224;2023-06-22T07:41:09;22.60;99.90
20712;DHT22;10517;50.742;4.224;2023-06-22T07:43:35;22.50;99.90
20712;DHT22;10517;50.742;4.224;2023-06-22T07:46:05;22.40;99.90
20712;DHT22;10517;50.742;4.224;2023-06-22T07:48:30;22.30;99.90
20712;DHT22;10517;50.742;4.224;2023-06-22T07:50:56;22.20;99.90
20712;DHT22;10517;50.742;4.224;2023-06-22T07:53:22;22.10;99.90
20712;DHT22;10517;50.742;4.224;2023-06-22T07:55:49;22.00;99.90
20712;DHT22;10517;50.742;4.224;2023-06-22T07:58:15;22.00;99.90
20712;DHT22;10517;50.742;4.224;2023-06-22T08:00:41;21.90;99.90
20712;DHT22;10517;50.742;4.224;2023-06-22T08:03:07;22.00;99.90
20712;DHT22;10517;50.742;4.224;2023-06-22T08:05:32;21.90;99.90
20712;DHT22;10517;50.742;4.224;2023-06-22T08:07:58;22.00;99.90
20712;DHT22;10517;50.742;4.224;2023-06-22T08:10:24;21.90;99.90
20712;DHT22;10517;50.742;4.224;2023-06-22T08:12:50;21.60;99.90
20712;DHT22;10517;50.742;4.224;2023-06-22T08:15:17;21.70;99.90
20712;DHT22;10517;50.742;4.224;2023-06-22T08:17:44;21.90;99.90
20712;DHT22;10517;50.742;4.224;2023-06-22T08:20:11;21.90;99.90
20712;DHT22;10517;50.742;4.224;2023-06-22T08:22:41;22.00;99.90
20712;DHT22;10517;50.742;4.224;2023-06-22T08:25:07;22.00;99.90
20712;DHT22;10517;50.742;4.224;2023-06-22T08:27:34;22.00;99.90
20712;DHT22;10517;50.742;4.224;2023-06-22T08:30:01;22.20;99.90
20712;DHT22;10517;50.742;4.224;2023-06-22T08:32:30;22.20;99.90
20712;DHT22;10517;50.742;4.224;2023-06-22T08:34:58;22.10;99.90
20712;DHT22;10517;50.742;4.224;2023-06-22T08:37:24;22.10;99.90
20712;DHT22;10517;50.742;4.224;2023-06-22T08:39:59;22.00;99.90
20712;DHT22;10517;50.742;4.224;2023-06-22T08:42:26;21.90;99.90
20712;DHT22;10517;50.742;4.224;2023-06-22T08:44:52;21.80;99.90
20712;DHT22;10517;50.742;4.224;2023-06-22T08:47:19;21.90;99.90
20712;DHT22;10517;50.742;4.224;2023-06-22T08:49:45;21.80;99.90
20712;DHT22;10517;50.742;4.224;2023-06-22T08:52:11;21.80;99.90
20712;DHT22;10517;50.742;4.224;2023-06-22T08:54:36;21.60;99.90
20712;DHT22;10517;50.742;4.224;2023-06-22T08:57:02;21.60;99.90
20712;DHT22;10517;50.742;4.224;2023-06-22T08:59:28;21.70;99.90
20712;DHT22;10517;50.742;4.224;2023-06-22T09:01:54;21.60;99.90
20712;DHT22;10517;50.742;4.224;2023-06-22T09:04:19;21.70;99.90
20712;DHT22;10517;50.742;4.224;2023-06-22T09:06:47;21.70;99.90
20712;DHT22;10517;50.742;4.224;2023-06-22T09:09:15;21.70;99.90
20712;DHT22;10517;50.742;4.224;2023-06-22T09:11:41;21.80;99.90
20712;DHT22;10517;50.742;4.224;2023-06-22T09:14:06;21.80;99.90
20712;DHT22;10517;50.742;4.224;2023-06-22T09:16:32;21.70;99.90
20712;DHT22;10517;50.742;4.224;2023-06-22T09:18:58;21.70;99.90
20712;DHT22;10517;50.742;4.224;2023-06-22T09:21:24;21.70;99.90
20712;DHT22;10517;50.742;4.224;2023-06-22T09:23:49;21.60;99.90
20712;DHT22;10517;50.742;4.224;2023-06-22T09:26:18;21.50;99.90
20712;DHT22;10517;50.742;4.224;2023-06-22T09:28:44;21.30;99.90
20712;DHT22;10517;50.742;4.224;2023-06-22T09:31:10;21.10;99.90
20712;DHT22;10517;50.742;4.224;2023-06-22T09:33:36;21.20;99.90
20712;DHT22;10517;50.742;4.224;2023-06-22T09:36:06;21.20;99.90
20712;DHT22;10517;50.742;4.224;2023-06-22T09:38:37;21.10;99.90
20712;DHT22;10517;50.742;4.224;2023-06-22T09:41:03;21.10;99.90
20712;DHT22;10517;50.742;4.224;2023-06-22T09:43:29;20.90;99.90
20712;DHT22;10517;50.742;4.224;2023-06-22T09:45:55;20.30;99.90
20712;DHT22;10517;50.742;4.224;2023-06-22T09:48:22;20.00;99.90
20712;DHT22;10517;50.742;4.224;2023-06-22T09:50:47;19.80;99.90
20712;DHT22;10517;50.742;4.224;2023-06-22T09:53:13;19.60;99.90
20712;DHT22;10517;50.742;4.224;2023-06-22T09:55:39;19.20;99.90
20712;DHT22;10517;50.742;4.224;2023-06-22T09:58:04;19.10;99.90
20712;DHT22;10517;50.742;4.224;2023-06-22T10:00:30;19.10;99.90
20712;DHT22;10517;50.742;4.224;2023-06-22T10:02:55;19.00;99.90
20712;DHT22;10517;50.742;4.224;2023-06-22T10:05:22;18.80;99.90
20712;DHT22;10517;50.742;4.224;2023-06-22T10:07:47;18.60;99.90
20712;DHT22;10517;50.742;4.224;2023-06-22T10:10:14;18.50;99.90
20712;DHT22;10517;50.742;4.224;2023-06-22T10:12:46;18.50;99.90
20712;DHT22;10517;50.742;4.224;2023-06-22T10:15:13;18.50;99.90
20712;DHT22;10517;50.742;4.224;2023-06-22T10:17:39;18.50;99.90
20712;DHT22;10517;50.742;4.224;2023-06-22T10:20:06;18.40;99.90
20712;DHT22;10517;50.742;4.224;2023-06-22T10:22:42;18.40;99.90
20712;DHT22;10517;50.742;4.224;2023-06-22T10:25:09;18.40;99.90
20712;DHT22;10517;50.742;4.224;2023-06-22T10:27:35;18.40;99.90
20712;DHT22;10517;50.742;4.224;2023-06-22T10:30:01;18.30;99.90
20712;DHT22;10517;50.742;4.224;2023-06-22T10:32:27;18.20;99.90
20712;DHT22;10517;50.742;4.224;2023-06-22T10:34:56;18.20;99.90
20712;DHT22;10517;50.742;4.224;2023-06-22T10:37:22;18.30;99.90
20712;DHT22;10517;50.742;4.224;2023-06-22T10:39:48;18.40;99.90
20712;DHT22;10517;50.742;4.224;2023-06-22T10:42:14;18.30;99.90
20712;DHT22;10517;50.742;4.224;2023-06-22T10:44:40;18.30;99.90
20712;DHT22;10517;50.742;4.224;2023-06-22T10:47:08;18.30;99.90
20712;DHT22;10517;50.742;4.224;2023-06-22T10:49:34;18.50;99.90
20712;DHT22;10517;50.742;4.224;2023-06-22T10:51:59;18.60;99.90
20712;DHT22;10517;50.742;4.224;2023-06-22T10:54:25;18.80;99.90
20712;DHT22;10517;50.742;4.224;2023-06-22T10:56:51;18.90;99.90
20712;DHT22;10517;50.742;4.224;2023-06-22T10:59:16;18.90;99.90
20712;DHT22;10517;50.742;4.224;2023-06-22T11:01:42;18.80;99.90
20712;DHT22;10517;50.742;4.224;2023-06-22T11:04:08;18.80;99.90
20712;DHT22;10517;50.742;4.224;2023-06-22T11:06:33;18.90;99.90
20712;DHT22;10517;50.742;4.224;2023-06-22T11:08:59;18.90;99.90
20712;DHT22;10517;50.742;4.224;2023-06-22T11:11:26;18.90;99.90
20712;DHT22;10517;50.742;4.224;2023-06-22T11:13:52;19.00;99.90
20712;DHT22;10517;50.742;4.224;2023-06-22T11:16:18;19.00;99.90
20712;DHT22;10517;50.742;4.224;2023-06-22T11:18:44;19.10;99.90
20712;DHT22;10517;50.742;4.224;2023-06-22T11:21:10;19.20;99.90
20712;DHT22;10517;50.742;4.224;2023-06-22T11:23:35;19.20;99.90
20712;DHT22;10517;50.742;4.224;2023-06-22T11:26:01;19.10;99.90
20712;DHT22;10517;50.742;4.224;2023-06-22T11:28:27;19.00;99.90
20712;DHT22;10517;50.742;4.224;2023-06-22T11:30:53;19.00;99.90
20712;DHT22;10517;50.742;4.224;2023-06-22T11:33:19;19.00;99.90
20712;DHT22;10517;50.742;4.224;2023-06-22T11:35:44;19.00;99.90
20712;DHT22;10517;50.742;4.224;2023-06-22T11:38:10;19.00;99.90
20712;DHT22;10517;50.742;4.224;2023-06-22T11:40:36;19.00;99.90
20712;DHT22;10517;50.742;4.224;2023-06-22T11:43:01;19.00;99.90
20712;DHT22;10517;50.742;4.224;2023-06-22T11:45:28;19.00;99.90
20712;DHT22;10517;50.742;4.224;2023-06-22T11:47:53;19.00;99.90
20712;DHT22;10517;50.742;4.224;2023-06-22T11:50:19;18.90;99.90
20712;DHT22;10517;50.742;4.224;2023-06-22T11:52:45;19.00;99.90
20712;DHT22;10517;50.742;4.224;2023-06-22T11:55:10;18.90;99.90
20712;DHT22;10517;50.742;4.224;2023-06-22T11:57:37;18.90;99.90
20712;DHT22;10517;50.742;4.224;2023-06-22T12:00:04;18.90;99.90
20712;DHT22;10517;50.742;4.224;2023-06-22T12:02:43;18.90;99.90
20712;DHT22;10517;50.742;4.224;2023-06-22T12:05:10;18.90;99.90
20712;DHT22;10517;50.742;4.224;2023-06-22T12:07:36;18.80;99.90
20712;DHT22;10517;50.742;4.224;2023-06-22T12:10:03;18.80;99.90
20712;DHT22;10517;50.742;4.224;2023-06-22T12:12:29;18.80;99.90
20712;DHT22;10517;50.742;4.224;2023-06-22T12:14:54;18.70;99.90
20712;DHT22;10517;50.742;4.224;2023-06-22T12:17:20;18.60;99.90
20712;DHT22;10517;50.742;4.224;2023-06-22T12:19:46;18.50;99.90
20712;DHT22;10517;50.742;4.224;2023-06-22T12:22:12;18.40;99.90
20712;DHT22;10517;50.742;4.224;2023-06-22T12:24:37;18.40;99.90
20712;DHT22;10517;50.742;4.224;2023-06-22T12:27:03;18.30;99.90
20712;DHT22;10517;50.742;4.224;2023-06-22T12:29:29;18.30;99.90
20712;DHT22;10517;50.742;4.224;2023-06-22T12:31:55;18.20;99.90
20712;DHT22;10517;50.742;4.224;2023-06-22T12:34:20;18.20;99.90
20712;DHT22;10517;50.742;4.224;2023-06-22T12:36:46;18.20;99.90
20712;DHT22;10517;50.742;4.224;2023-06-22T12:39:15;18.30;99.90
20712;DHT22;10517;50.742;4.224;2023-06-22T12:41:40;18.40;99.90
20712;DHT22;10517;50.742;4.224;2023-06-22T12:44:06;18.40;99.90
20712;DHT22;10517;50.742;4.224;2023-06-22T12:46:32;18.40;99.90
20712;DHT22;10517;50.742;4.224;2023-06-22T12:49:03;18.50;99.90
20712;DHT22;10517;50.742;4.224;2023-06-22T12:51:30;18.60;99.90
20712;DHT22;10517;50.742;4.224;2023-06-22T12:53:56;18.70;99.90
20712;DHT22;10517;50.742;4.224;2023-06-22T12:56:22;18.70;99.90
20712;DHT22;10517;50.742;4.224;2023-06-22T12:58:48;18.70;99.90
20712;DHT22;10517;50.742;4.224;2023-06-22T13:01:14;18.70;99.90
20712;DHT22;10517;50.742;4.224;2023-06-22T13:03:40;18.70;99.90
20712;DHT22;10517;50.742;4.224;2023-06-22T13:06:05;18.70;99.90
20712;DHT22;10517;50.742;4.224;2023-06-22T13:08:31;18.70;99.90
20712;DHT22;10517;50.742;4.224;2023-06-22T13:10:57;18.60;99.90
20712;DHT22;10517;50.742;4.224;2023-06-22T13:13:25;18.50;99.90
20712;DHT22;10517;50.742;4.224;2023-06-22T13:15:52;18.50;99.90
20712;DHT22;10517;50.742;4.224;2023-06-22T13:18:19;18.50;99.90
20712;DHT22;10517;50.742;4.224;2023-06-22T13:20:45;18.60;99.90
20712;DHT22;10517;50.742;4.224;2023-06-22T13:23:11;18.40;99.90
20712;DHT22;10517;50.742;4.224;2023-06-22T13:25:37;18.40;99.90
20712;DHT22;10517;50.742;4.224;2023-06-22T13:28:03;18.40;99.90
20712;DHT22;10517;50.742;4.224;2023-06-22T13:30:28;18.40;99.90
20712;DHT22;10517;50.742;4.224;2023-06-22T13:32:55;18.40;99.90
20712;DHT22;10517;50.742;4.224;2023-06-22T13:35:21;18.40;99.90
20712;DHT22;10517;50.742;4.224;2023-06-22T13:37:46;18.50;99.90
20712;DHT22;10517;50.742;4.224;2023-06-22T13:40:12;18.60;99.90
20712;DHT22;10517;50.742;4.224;2023-06-22T13:42:38;18.60;99.90
20712;DHT22;10517;50.742;4.224;2023-06-22T13:45:04;18.60;99.90
20712;DHT22;10517;50.742;4.224;2023-06-22T13:47:30;18.50;99.90
20712;DHT22;10517;50.742;4.224;2023-06-22T13:49:56;18.50;99.90
20712;DHT22;10517;50.742;4.224;2023-06-22T13:52:23;18.40;99.90
20712;DHT22;10517;50.742;4.224;2023-06-22T13:54:48;18.40;99.90
20712;DHT22;10517;50.742;4.224;2023-06-22T13:57:14;18.50;99.90
20712;DHT22;10517;50.742;4.224;2023-06-22T13:59:40;18.40;99.90
20712;DHT22;10517;50.742;4.224;2023-06-22T14:02:06;18.40;99.90
20712;DHT22;10517;50.742;4.224;2023-06-22T14:04:32;18.30;99.90
20712;DHT22;10517;50.742;4.224;2023-06-22T14:06:58;18.30;99.90
20712;DHT22;10517;50.742;4.224;2023-06-22T14:09:24;18.40;99.90
20712;DHT22;10517;50.742;4.224;2023-06-22T14:11:49;18.50;99.90
20712;DHT22;10517;50.742;4.224;2023-06-22T14:14:15;18.60;99.90
20712;DHT22;10517;50.742;4.224;2023-06-22T14:16:41;18.60;99.90
20712;DHT22;10517;50.742;4.224;2023-06-22T14:19:06;18.50;99.90
20712;DHT22;10517;50.742;4.224;2023-06-22T14:21:32;18.50;99.90
20712;DHT22;10517;50.742;4.224;2023-06-22T14:23:57;18.50;99.90
20712;DHT22;10517;50.742;4.224;2023-06-22T14:26:23;18.40;99.90
20712;DHT22;10517;50.742;4.224;2023-06-22T14:28:49;18.50;99.90
20712;DHT22;10517;50.742;4.224;2023-06-22T14:31:18;18.50;99.90
20712;DHT22;10517;50.742;4.224;2023-06-22T14:33:47;18.40;99.90
20712;DHT22;10517;50.742;4.224;2023-06-22T14:36:13;18.40;99.90
20712;DHT22;10517;50.742;4.224;2023-06-22T14:38:39;18.30;99.90
20712;DHT22;10517;50.742;4.224;2023-06-22T14:41:05;18.40;99.90
20712;DHT22;10517;50.742;4.224;2023-06-22T14:43:31;18.40;99.90
20712;DHT22;10517;50.742;4.224;2023-06-22T14:45:56;18.40;99.90
20712;DHT22;10517;50.742;4.224;2023-06-22T14:48:22;18.40;99.90
20712;DHT22;10517;50.742;4.224;2023-06-22T14:50:48;18.50;99.90
20712;DHT22;10517;50.742;4.224;2023-06-22T14:53:13;18.70;99.90
20712;DHT22;10517;50.742;4.224;2023-06-22T14:55:40;18.70;99.90
20712;DHT22;10517;50.742;4.224;2023-06-22T14:58:05;18.60;99.90
20712;DHT22;10517;50.742;4.224;2023-06-22T15:00:31;18.70;99.90
20712;DHT22;10517;50.742;4.224;2023-06-22T15:02:57;18.60;99.90
20712;DHT22;10517;50.742;4.224;2023-06-22T15:05:24;18.60;99.90
20712;DHT22;10517;50.742;4.224;2023-06-22T15:07:50;18.70;99.90
20712;DHT22;10517;50.742;4.224;2023-06-22T15:10:16;18.80;99.90
20712;DHT22;10517;50.742;4.224;2023-06-22T15:12:42;18.80;99.90
20712;DHT22;10517;50.742;4.224;2023-06-22T15:15:08;18.80;99.90
20712;DHT22;10517;50.742;4.224;2023-06-22T15:17:34;19.00;99.90
20712;DHT22;10517;50.742;4.224;2023-06-22T15:20:00;19.00;99.90
20712;DHT22;10517;50.742;4.224;2023-06-22T15:22:26;19.10;99.90
20712;DHT22;10517;50.742;4.224;2023-06-22T15:24:51;19.20;99.90
20712;DHT22;10517;50.742;4.224;2023-06-22T15:27:19;19.20;99.90
20712;DHT22;10517;50.742;4.224;2023-06-22T15:29:45;19.20;99.90
20712;DHT22;10517;50.742;4.224;2023-06-22T15:32:11;19.10;99.90